Time;durP1;ratioP1;P1;durP2;ratioP2;P2;SDS_P1;SDS_P2;PMS_P1;PMS_P2;Temp;Humidity;BMP_temperature;BMP_pressure;BME280_temperature;BME280_humidity;BME280_pressure;Samples;Min_cycle;Max_cycle;Signal;HPM_P1;HPM_P2
2023/12/12 00:01:52;;;;;;;13.98;1.20;;;7.60;99.90;;;;;;4936985;28;20068;-72
2023/12/12 00:04:18;;;;;;;12.68;1.13;;;7.00;99.90;;;;;;4968104;28;20043;-72
2023/12/12 00:06:43;;;;;;;9.95;1.25;;;7.60;99.90;;;;;;4936777;28;20058;-72
2023/12/12 00:09:09;;;;;;;9.98;1.38;;;7.80;99.90;;;;;;4924430;28;20047;-73
2023/12/12 00:11:35;;;;;;;11.07;1.52;;;7.40;99.90;;;;;;4936021;28;20054;-72
2023/12/12 00:14:00;;;;;;;10.38;1.00;;;7.70;99.90;;;;;;4952436;28;20130;-72
2023/12/12 00:16:27;;;;;;;10.75;1.17;;;6.90;99.90;;;;;;4952082;28;20142;-72
2023/12/12 00:18:53;;;;;;;6.45;1.00;;;7.00;99.90;;;;;;4952244;28;20286;-72
2023/12/12 00:21:18;;;;;;;8.30;0.90;;;7.70;99.90;;;;;;4951938;28;20051;-72
2023/12/12 00:23:45;;;;;;;12.85;1.40;;;7.00;99.90;;;;;;4936827;28;20042;-72
2023/12/12 00:26:12;;;;;;;13.88;1.45;;;7.10;99.90;;;;;;4936029;28;20070;-72
2023/12/12 00:28:39;;;;;;;9.25;1.30;;;7.00;99.90;;;;;;4936162;28;20115;-72
2023/12/12 00:31:05;;;;;;;8.15;1.10;;;7.00;99.90;;;;;;4951897;28;20431;-72
2023/12/12 00:33:31;;;;;;;10.45;0.80;;;7.60;99.90;;;;;;4936180;28;20050;-72
2023/12/12 00:35:59;;;;;;;11.48;1.20;;;7.00;99.90;;;;;;4952223;28;20042;-72
2023/12/12 00:38:28;;;;;;;10.38;0.90;;;7.70;99.90;;;;;;4936436;28;20247;-72
2023/12/12 00:40:55;;;;;;;13.32;1.15;;;6.90;99.90;;;;;;4951947;28;20051;-72
2023/12/12 00:43:22;;;;;;;10.57;1.20;;;7.50;99.90;;;;;;4952010;28;20042;-72
2023/12/12 00:45:48;;;;;;;16.13;1.27;;;7.20;99.90;;;;;;4951511;28;20113;-73
2023/12/12 00:48:13;;;;;;;14.15;1.02;;;6.80;99.90;;;;;;4935953;28;20042;-72
2023/12/12 00:50:39;;;;;;;9.20;0.95;;;6.90;99.90;;;;;;4935928;28;20053;-72
2023/12/12 00:53:05;;;;;;;13.52;1.20;;;7.00;99.90;;;;;;4935586;28;20043;-72
2023/12/12 00:55:31;;;;;;;10.75;1.30;;;7.50;99.90;;;;;;4951471;28;20058;-72
2023/12/12 00:57:57;;;;;;;9.10;0.85;;;6.70;99.90;;;;;;4951284;28;20070;-72
2023/12/12 01:00:22;;;;;;;6.53;0.90;;;7.50;99.90;;;;;;4931272;28;20031;-72
2023/12/12 01:02:49;;;;;;;9.95;1.30;;;6.70;99.90;;;;;;4936413;28;20085;-72
2023/12/12 01:05:14;;;;;;;9.93;0.90;;;7.50;99.90;;;;;;4935611;28;20030;-72
2023/12/12 01:07:40;;;;;;;8.48;0.82;;;7.00;99.90;;;;;;4952095;28;20387;-72
2023/12/12 01:10:06;;;;;;;11.30;1.00;;;6.90;99.90;;;;;;4935626;28;20050;-72
2023/12/12 01:12:32;;;;;;;12.93;1.10;;;6.80;99.90;;;;;;4952216;28;20038;-72
2023/12/12 01:15:00;;;;;;;11.98;1.02;;;7.40;99.90;;;;;;4951830;28;20727;-72
2023/12/12 01:17:29;;;;;;;8.38;1.00;;;6.50;99.90;;;;;;4951380;28;20051;-72
2023/12/12 01:19:55;;;;;;;8.23;1.00;;;6.50;99.90;;;;;;4923934;28;20409;-72
2023/12/12 01:22:21;;;;;;;9.35;0.90;;;6.80;99.90;;;;;;4936177;28;20050;-72
2023/12/12 01:24:47;;;;;;;12.30;0.88;;;6.60;99.90;;;;;;4936014;28;20670;-72
2023/12/12 01:27:13;;;;;;;8.02;1.02;;;7.10;99.90;;;;;;4934461;28;20134;-72
2023/12/12 01:29:40;;;;;;;10.45;1.02;;;6.30;99.90;;;;;;4951493;28;20441;-71
2023/12/12 01:32:07;;;;;;;8.77;0.90;;;6.40;99.90;;;;;;4951311;28;20046;-71
2023/12/12 01:34:33;;;;;;;10.70;1.10;;;7.00;99.90;;;;;;4935736;28;20545;-71
2023/12/12 01:36:59;;;;;;;9.05;1.02;;;6.70;99.90;;;;;;4934890;28;20129;-71
2023/12/12 01:39:25;;;;;;;8.30;0.90;;;6.50;99.90;;;;;;4950564;28;20038;-71
2023/12/12 01:41:51;;;;;;;9.65;0.85;;;6.30;99.90;;;;;;4951941;28;20043;-71
2023/12/12 01:44:16;;;;;;;13.65;0.73;;;6.20;99.90;;;;;;4951564;28;20535;-71
2023/12/12 01:46:47;;;;;;;8.73;0.90;;;6.90;99.90;;;;;;4935364;28;21120;-71
2023/12/12 01:49:13;;;;;;;7.75;0.90;;;6.80;99.90;;;;;;4951203;28;20668;-72
2023/12/12 01:51:39;;;;;;;11.02;0.95;;;6.30;99.90;;;;;;4952068;28;20035;-73
2023/12/12 01:54:06;;;;;;;9.75;0.90;;;6.30;99.90;;;;;;4935091;28;20050;-73
2023/12/12 01:56:34;;;;;;;11.77;1.25;;;6.70;99.90;;;;;;4951120;28;20208;-73
2023/12/12 01:59:01;;;;;;;7.88;1.00;;;6.40;99.90;;;;;;4950946;28;20081;-73
2023/12/12 02:01:28;;;;;;;11.68;1.33;;;6.80;99.90;;;;;;4935001;28;20129;-73
2023/12/12 02:03:55;;;;;;;7.75;0.90;;;6.90;99.90;;;;;;4936342;28;20489;-73
2023/12/12 02:06:22;;;;;;;10.10;0.90;;;6.50;99.90;;;;;;4923466;28;20113;-73
2023/12/12 02:08:57;;;;;;;8.30;1.10;;;6.70;99.90;;;;;;4951642;28;20058;-73
2023/12/12 02:11:23;;;;;;;10.13;1.10;;;6.50;99.90;;;;;;4951597;28;20049;-73
2023/12/12 02:13:48;;;;;;;5.65;0.88;;;6.10;99.90;;;;;;4935996;28;20046;-73
2023/12/12 02:16:14;;;;;;;12.60;1.73;;;6.20;99.90;;;;;;4952100;28;20512;-73
2023/12/12 02:18:40;;;;;;;13.15;1.35;;;6.20;99.90;;;;;;4936239;28;20066;-73
2023/12/12 02:21:06;;;;;;;11.38;1.25;;;6.00;99.90;;;;;;4952432;28;20112;-73
2023/12/12 02:23:32;;;;;;;12.23;1.50;;;6.50;99.90;;;;;;4952134;28;20054;-73
2023/12/12 02:26:02;;;;;;;10.48;0.98;;;6.60;99.90;;;;;;4936185;28;20572;-73
2023/12/12 02:28:28;;;;;;;9.18;1.45;;;6.40;99.90;;;;;;4984645;28;20038;-73
2023/12/12 02:30:55;;;;;;;7.85;1.40;;;5.90;99.90;;;;;;4952568;28;20270;-73
2023/12/12 02:33:20;;;;;;;13.85;1.65;;;6.50;99.90;;;;;;4952179;28;20038;-73
2023/12/12 02:35:46;;;;;;;7.78;1.65;;;6.00;99.90;;;;;;4936383;28;20053;-72
2023/12/12 02:38:13;;;;;;;8.55;1.80;;;6.20;99.90;;;;;;4952051;28;20303;-72
2023/12/12 02:40:39;;;;;;;11.52;1.73;;;5.50;99.90;;;;;;4952025;28;20211;-72
2023/12/12 02:43:05;;;;;;;8.15;1.73;;;6.00;99.90;;;;;;4952336;28;20043;-73
2023/12/12 02:45:30;;;;;;;8.68;1.80;;;5.40;99.90;;;;;;4936345;28;20045;-72
2023/12/12 02:47:56;;;;;;;10.82;1.85;;;6.10;99.90;;;;;;4936973;28;20592;-72
2023/12/12 02:50:23;;;;;;;6.78;1.75;;;5.60;99.90;;;;;;4935732;28;20050;-72
2023/12/12 02:52:48;;;;;;;7.05;1.52;;;6.00;99.90;;;;;;4936542;28;20070;-72
2023/12/12 02:55:14;;;;;;;10.13;2.10;;;5.80;99.90;;;;;;4951232;28;20291;-72
2023/12/12 02:57:40;;;;;;;15.32;2.20;;;5.00;99.90;;;;;;4952812;28;20170;-73
2023/12/12 03:00:06;;;;;;;7.60;2.03;;;5.10;99.90;;;;;;4952039;28;20462;-72
2023/12/12 03:02:33;;;;;;;12.55;2.53;;;5.00;99.90;;;;;;4937282;28;20470;-72
2023/12/12 03:04:58;;;;;;;7.55;2.15;;;5.80;99.90;;;;;;4924399;28;20497;-72
2023/12/12 03:07:24;;;;;;;9.93;3.05;;;5.60;99.90;;;;;;4937394;28;20047;-72
2023/12/12 03:09:50;;;;;;;12.27;2.10;;;5.00;99.90;;;;;;4952383;28;20035;-72
2023/12/12 03:12:16;;;;;;;9.95;2.58;;;5.30;99.90;;;;;;4952692;28;20054;-72
2023/12/12 03:14:42;;;;;;;8.18;1.95;;;5.30;99.90;;;;;;4936744;28;20043;-72
2023/12/12 03:17:08;;;;;;;11.65;3.20;;;5.60;99.90;;;;;;4936736;28;20101;-72
2023/12/12 03:19:34;;;;;;;8.60;2.33;;;5.90;99.90;;;;;;4936270;28;20421;-72
2023/12/12 03:21:59;;;;;;;7.70;2.33;;;5.50;99.90;;;;;;4936784;28;20130;-72
2023/12/12 03:24:26;;;;;;;9.68;2.30;;;5.80;99.90;;;;;;4936532;28;21112;-72
2023/12/12 03:26:51;;;;;;;13.00;2.72;;;6.00;99.90;;;;;;4920638;28;20466;-72
2023/12/12 03:29:17;;;;;;;8.75;2.10;;;5.60;99.90;;;;;;4935967;28;20050;-72
2023/12/12 03:31:43;;;;;;;9.40;2.22;;;5.70;99.90;;;;;;4932001;28;20285;-72
2023/12/12 03:34:08;;;;;;;8.13;2.10;;;5.80;99.90;;;;;;4952052;28;20710;-72
2023/12/12 03:36:35;;;;;;;10.95;2.05;;;5.70;99.90;;;;;;4937110;28;20423;-72
2023/12/12 03:39:01;;;;;;;6.38;1.65;;;5.90;99.90;;;;;;4936423;28;20035;-72
2023/12/12 03:41:29;;;;;;;6.07;2.10;;;5.60;99.90;;;;;;4952334;28;20054;-72
2023/12/12 03:43:54;;;;;;;8.93;1.77;;;6.20;99.90;;;;;;4953017;28;20058;-72
2023/12/12 03:46:20;;;;;;;9.32;2.03;;;6.30;99.90;;;;;;4937258;28;20039;-72
2023/12/12 03:48:46;;;;;;;10.30;1.85;;;6.10;99.90;;;;;;4936650;28;20047;-72
2023/12/12 03:51:12;;;;;;;7.15;2.17;;;5.40;99.90;;;;;;4952141;28;20047;-72
2023/12/12 03:53:39;;;;;;;8.13;2.03;;;5.80;99.90;;;;;;4936933;28;20113;-72
2023/12/12 03:56:05;;;;;;;11.48;2.53;;;6.10;99.90;;;;;;4952743;28;20039;-72
2023/12/12 03:58:31;;;;;;;7.47;2.05;;;5.70;99.90;;;;;;4936657;28;20038;-71
2023/12/12 04:00:57;;;;;;;10.15;2.08;;;6.20;99.90;;;;;;4952591;28;20338;-72
2023/12/12 04:03:22;;;;;;;8.85;2.25;;;6.20;99.90;;;;;;4955187;28;20069;-72
2023/12/12 04:05:48;;;;;;;9.80;2.30;;;6.00;99.90;;;;;;4923662;28;20568;-72
2023/12/12 04:08:14;;;;;;;10.43;2.35;;;5.40;99.90;;;;;;4956168;28;20137;-72
2023/12/12 04:10:40;;;;;;;12.50;2.22;;;6.20;99.90;;;;;;4955104;28;20043;-72
2023/12/12 04:13:05;;;;;;;9.07;2.30;;;5.60;99.90;;;;;;4956182;28;20054;-72
2023/12/12 04:15:31;;;;;;;8.10;2.40;;;5.70;99.90;;;;;;4956454;28;20055;-72
2023/12/12 04:17:57;;;;;;;9.38;2.13;;;5.60;99.90;;;;;;4956322;28;20046;-72
2023/12/12 04:20:23;;;;;;;7.18;1.80;;;6.20;99.90;;;;;;4956077;28;20122;-72
2023/12/12 04:22:48;;;;;;;12.30;2.13;;;6.10;99.90;;;;;;4955902;28;20050;-71
2023/12/12 04:25:14;;;;;;;10.85;2.42;;;6.00;99.90;;;;;;4955888;28;20409;-71
2023/12/12 04:27:40;;;;;;;6.38;1.65;;;5.30;99.90;;;;;;4955727;28;20050;-71
2023/12/12 04:30:06;;;;;;;11.55;1.95;;;6.20;99.90;;;;;;4956132;28;20047;-71
2023/12/12 04:32:33;;;;;;;8.70;2.25;;;6.00;99.90;;;;;;4940116;28;20046;-71
2023/12/12 04:35:05;;;;;;;7.75;1.73;;;5.60;99.90;;;;;;4955773;28;20947;-71
2023/12/12 04:37:31;;;;;;;7.78;2.00;;;5.30;99.90;;;;;;4954705;28;20130;-71
2023/12/12 04:39:56;;;;;;;9.95;2.17;;;6.00;99.90;;;;;;4939143;28;20050;-71
2023/12/12 04:42:25;;;;;;;8.95;2.00;;;5.50;99.90;;;;;;4954667;28;20508;-71
2023/12/12 04:44:51;;;;;;;14.23;2.60;;;5.70;99.90;;;;;;4956017;28;20584;-71
2023/12/12 04:47:17;;;;;;;11.10;2.58;;;6.10;99.90;;;;;;4955473;28;20157;-72
2023/12/12 04:49:42;;;;;;;7.90;2.03;;;5.30;99.90;;;;;;4939025;28;20058;-71
2023/12/12 04:52:09;;;;;;;11.23;2.20;;;5.70;99.90;;;;;;4938569;28;20127;-71
2023/12/12 04:54:34;;;;;;;6.70;2.40;;;5.80;99.90;;;;;;4954869;28;20489;-71
2023/12/12 04:57:00;;;;;;;9.85;2.03;;;5.80;99.90;;;;;;4925257;28;20339;-71
2023/12/12 04:59:26;;;;;;;9.93;2.17;;;5.70;99.90;;;;;;4955098;28;20619;-71
2023/12/12 05:01:52;;;;;;;9.43;2.17;;;5.80;99.90;;;;;;4954485;28;20413;-71
2023/12/12 05:04:17;;;;;;;8.90;2.03;;;5.00;99.90;;;;;;4954810;28;20053;-71
2023/12/12 05:06:43;;;;;;;8.57;2.40;;;5.30;99.90;;;;;;4953891;28;20262;-71
2023/12/12 05:09:09;;;;;;;8.73;2.55;;;5.80;99.90;;;;;;4954776;28;21403;-71
2023/12/12 05:11:34;;;;;;;13.50;2.80;;;4.90;99.90;;;;;;4953458;28;20039;-71
2023/12/12 05:14:01;;;;;;;11.50;2.58;;;5.60;99.90;;;;;;4954290;28;20039;-71
2023/12/12 05:16:27;;;;;;;6.97;2.63;;;4.90;99.90;;;;;;4954001;28;20057;-71
2023/12/12 05:18:54;;;;;;;10.18;3.17;;;5.50;99.90;;;;;;4953747;28;20059;-71
2023/12/12 05:21:21;;;;;;;10.23;2.88;;;5.70;99.90;;;;;;4953798;28;20038;-71
2023/12/12 05:23:48;;;;;;;9.57;3.00;;;5.00;99.90;;;;;;4937758;28;20105;-71
2023/12/12 05:26:15;;;;;;;12.35;2.58;;;5.30;99.90;;;;;;4954239;28;20209;-71
2023/12/12 05:28:41;;;;;;;9.07;2.97;;;5.10;99.90;;;;;;4986739;28;20362;-71
2023/12/12 05:31:07;;;;;;;9.70;2.50;;;5.80;99.90;;;;;;4953616;28;20054;-71
2023/12/12 05:33:33;;;;;;;12.57;3.10;;;5.90;99.90;;;;;;4936913;28;20035;-71
2023/12/12 05:35:59;;;;;;;10.35;3.28;;;5.70;99.90;;;;;;4953717;28;20039;-70
2023/12/12 05:38:25;;;;;;;10.38;2.90;;;5.20;99.90;;;;;;4953094;28;20540;-70
2023/12/12 05:40:50;;;;;;;6.90;2.33;;;5.40;99.90;;;;;;4936943;28;20039;-71
2023/12/12 05:43:16;;;;;;;9.57;3.42;;;5.10;99.90;;;;;;4937370;28;20459;-71
2023/12/12 05:45:42;;;;;;;11.25;2.65;;;5.30;99.90;;;;;;4921372;28;20282;-71
2023/12/12 05:48:08;;;;;;;6.85;2.05;;;5.40;99.90;;;;;;4954245;28;20046;-71
2023/12/12 05:50:34;;;;;;;14.05;3.15;;;5.10;99.90;;;;;;4936905;28;20121;-71
2023/12/12 05:53:00;;;;;;;10.30;2.70;;;5.90;99.90;;;;;;4936096;28;20039;-71
2023/12/12 05:55:27;;;;;;;14.65;3.15;;;5.70;99.90;;;;;;4952305;28;20059;-71
2023/12/12 05:57:53;;;;;;;10.73;2.55;;;5.80;99.90;;;;;;4954728;28;20593;-71
2023/12/12 06:00:19;;;;;;;11.60;3.22;;;5.70;99.90;;;;;;4920954;28;20039;-71
2023/12/12 06:02:44;;;;;;;9.88;3.25;;;5.60;99.90;;;;;;4936788;28;20612;-71
2023/12/12 06:05:10;;;;;;;13.52;2.45;;;5.30;99.90;;;;;;4952272;28;20042;-71
2023/12/12 06:07:37;;;;;;;10.05;3.33;;;5.90;99.90;;;;;;4935700;28;20234;-71
2023/12/12 06:10:08;;;;;;;9.27;2.65;;;5.80;99.90;;;;;;4935597;28;20042;-71
2023/12/12 06:12:34;;;;;;;8.35;3.00;;;5.90;99.90;;;;;;4985015;28;20132;-71
2023/12/12 06:15:00;;;;;;;14.18;3.33;;;5.20;99.90;;;;;;4952816;28;20575;-71
2023/12/12 06:17:26;;;;;;;11.25;3.30;;;5.90;99.90;;;;;;4935275;28;20047;-71
2023/12/12 06:19:52;;;;;;;8.68;2.80;;;5.30;99.90;;;;;;4951748;28;20054;-71
2023/12/12 06:22:18;;;;;;;8.73;2.72;;;5.70;99.90;;;;;;4935734;28;20042;-70
2023/12/12 06:24:45;;;;;;;9.18;3.47;;;5.60;99.90;;;;;;4938089;28;20038;-70
2023/12/12 06:27:12;;;;;;;10.75;3.50;;;5.30;99.90;;;;;;4935384;28;20054;-70
2023/12/12 06:29:38;;;;;;;13.38;3.53;;;5.80;99.90;;;;;;4951308;28;20059;-70
2023/12/12 06:32:04;;;;;;;9.40;4.20;;;5.30;99.90;;;;;;4951354;28;20046;-70
2023/12/12 06:34:30;;;;;;;11.88;4.07;;;5.50;99.90;;;;;;4931053;28;20401;-70
2023/12/12 06:36:55;;;;;;;12.25;3.38;;;5.80;99.90;;;;;;4951732;28;20046;-70
2023/12/12 06:39:21;;;;;;;12.30;4.00;;;5.10;99.90;;;;;;4951622;28;20809;-70
2023/12/12 06:41:47;;;;;;;12.32;3.63;;;5.50;99.90;;;;;;4951289;28;20046;-70
2023/12/12 06:44:13;;;;;;;12.38;3.75;;;5.40;99.90;;;;;;4952052;28;20049;-70
2023/12/12 06:46:39;;;;;;;12.55;3.60;;;4.80;99.90;;;;;;4951870;28;20046;-70
2023/12/12 06:49:07;;;;;;;13.55;4.20;;;5.60;99.90;;;;;;4951656;28;20068;-70
2023/12/12 06:51:33;;;;;;;15.55;4.30;;;5.10;99.90;;;;;;4951104;28;20046;-70
2023/12/12 06:53:59;;;;;;;20.13;5.20;;;5.70;99.90;;;;;;4935606;28;20401;-70
2023/12/12 06:56:28;;;;;;;13.75;4.78;;;5.00;99.90;;;;;;4982190;28;20299;-70
2023/12/12 06:58:54;;;;;;;15.07;5.05;;;5.80;99.90;;;;;;4946932;28;20042;-70
2023/12/12 07:01:20;;;;;;;14.95;5.03;;;4.90;99.90;;;;;;4947797;28;20097;-70
2023/12/12 07:03:46;;;;;;;10.93;4.97;;;4.90;99.90;;;;;;4951269;28;20137;-70
2023/12/12 07:06:11;;;;;;;13.15;5.40;;;5.70;99.90;;;;;;4950172;28;20034;-70
2023/12/12 07:08:37;;;;;;;13.02;4.88;;;5.60;99.90;;;;;;4934154;28;20402;-70
2023/12/12 07:11:03;;;;;;;14.43;5.72;;;5.30;99.90;;;;;;4950080;28;20359;-70
2023/12/12 07:13:29;;;;;;;10.75;4.90;;;5.60;99.90;;;;;;4950611;28;20413;-70
2023/12/12 07:15:54;;;;;;;18.17;5.95;;;5.30;99.90;;;;;;4933804;28;20078;-70
2023/12/12 07:18:20;;;;;;;20.25;6.53;;;4.60;99.90;;;;;;4966046;28;20387;-70
2023/12/12 07:20:47;;;;;;;17.77;6.00;;;5.40;99.90;;;;;;4966046;28;20051;-70
2023/12/12 07:23:13;;;;;;;11.90;6.20;;;5.10;99.90;;;;;;4935465;28;20074;-70
2023/12/12 07:25:39;;;;;;;17.00;7.32;;;4.60;99.90;;;;;;4919715;28;20346;-69
2023/12/12 07:28:05;;;;;;;24.60;8.68;;;4.40;99.90;;;;;;4936271;28;20145;-69
2023/12/12 07:30:32;;;;;;;20.65;9.57;;;4.60;99.90;;;;;;4952194;28;20057;-69
2023/12/12 07:32:58;;;;;;;26.42;9.57;;;4.50;99.90;;;;;;4936455;28;20552;-69
2023/12/12 07:35:24;;;;;;;27.80;12.10;;;4.80;99.90;;;;;;4951172;28;20038;-69
2023/12/12 07:37:50;;;;;;;32.08;13.13;;;4.10;99.90;;;;;;4938795;28;20081;-69
2023/12/12 07:40:17;;;;;;;28.30;11.70;;;4.10;99.90;;;;;;4939353;28;20049;-69
2023/12/12 07:42:45;;;;;;;33.40;13.15;;;4.20;99.90;;;;;;4956017;28;20035;-70
2023/12/12 07:45:11;;;;;;;33.92;14.07;;;4.50;99.90;;;;;;4955563;28;20046;-70
2023/12/12 07:47:37;;;;;;;39.22;15.85;;;4.90;99.90;;;;;;4939073;28;20491;-70
2023/12/12 07:50:05;;;;;;;38.40;16.02;;;5.00;99.90;;;;;;4955896;28;20052;-70
2023/12/12 07:52:32;;;;;;;35.13;14.75;;;4.20;99.90;;;;;;4940153;28;20088;-69
2023/12/12 07:54:58;;;;;;;28.33;14.25;;;4.90;99.90;;;;;;4940079;28;20548;-69
2023/12/12 07:57:24;;;;;;;38.00;15.30;;;4.80;99.90;;;;;;4955638;28;20118;-69
2023/12/12 07:59:50;;;;;;;38.58;17.15;;;4.20;99.90;;;;;;4956154;28;20096;-69
2023/12/12 08:02:16;;;;;;;43.15;18.30;;;5.20;99.90;;;;;;4923090;28;20043;-70
2023/12/12 08:04:42;;;;;;;56.95;22.35;;;4.70;99.90;;;;;;4939100;28;20527;-69
2023/12/12 08:07:08;;;;;;;55.15;21.73;;;4.10;99.90;;;;;;4954165;28;20269;-69
2023/12/12 08:09:34;;;;;;;69.55;25.08;;;5.30;99.90;;;;;;4953834;28;20125;-69
2023/12/12 08:12:00;;;;;;;75.78;26.45;;;4.80;99.90;;;;;;4954486;28;20101;-69
2023/12/12 08:14:26;;;;;;;73.45;26.92;;;4.80;99.90;;;;;;4937581;28;20790;-69
2023/12/12 08:16:53;;;;;;;82.93;27.25;;;4.40;99.90;;;;;;4953999;28;20097;-69
2023/12/12 08:19:20;;;;;;;98.90;27.88;;;5.00;99.90;;;;;;4953389;28;20062;-70
2023/12/12 08:21:46;;;;;;;116.32;31.15;;;4.50;99.90;;;;;;4953934;28;20095;-69
2023/12/12 08:24:12;;;;;;;144.43;32.03;;;4.50;99.90;;;;;;4954447;28;20120;-69
2023/12/12 08:26:48;;;;;;;256.85;38.55;;;4.60;99.90;;;;;;4984627;28;20057;-69
2023/12/12 08:29:14;;;;;;;206.63;34.78;;;5.50;99.90;;;;;;4952961;28;20609;-68
2023/12/12 08:31:41;;;;;;;229.55;39.67;;;4.60;99.90;;;;;;4936265;28;20034;-68
2023/12/12 08:34:07;;;;;;;160.38;33.17;;;5.10;99.90;;;;;;4937128;28;20047;-68
2023/12/12 08:36:33;;;;;;;170.32;34.85;;;5.00;99.90;;;;;;4952495;28;20128;-68
2023/12/12 08:39:00;;;;;;;188.40;35.58;;;4.60;99.90;;;;;;4936962;28;20071;-68
2023/12/12 08:41:28;;;;;;;154.38;33.58;;;5.70;99.90;;;;;;4953526;28;20041;-68
2023/12/12 08:43:54;;;;;;;159.75;34.15;;;5.60;99.90;;;;;;4953910;28;20113;-68
2023/12/12 08:46:26;;;;;;;159.65;34.38;;;5.40;99.90;;;;;;4954530;28;20069;-68
2023/12/12 08:48:53;;;;;;;180.15;37.20;;;5.30;99.90;;;;;;4953780;28;20198;-68
2023/12/12 08:51:19;;;;;;;204.65;39.70;;;5.40;99.90;;;;;;4952967;28;20047;-69
2023/12/12 08:53:44;;;;;;;168.40;35.78;;;4.70;99.90;;;;;;4936622;28;20061;-68
2023/12/12 08:56:14;;;;;;;201.38;38.60;;;5.30;99.90;;;;;;4921054;28;20275;-68
2023/12/12 08:58:40;;;;;;;263.25;47.13;;;6.00;99.90;;;;;;4952150;28;20263;-68
2023/12/12 09:01:06;;;;;;;148.73;34.88;;;5.30;99.90;;;;;;4940170;28;20043;-68
2023/12/12 09:03:32;;;;;;;225.50;41.40;;;5.20;99.90;;;;;;4953391;28;20102;-68
2023/12/12 09:05:57;;;;;;;202.90;43.38;;;5.00;99.90;;;;;;4953466;28;20073;-68
2023/12/12 09:08:23;;;;;;;207.50;43.03;;;4.80;99.90;;;;;;4953387;28;20162;-68
2023/12/12 09:10:49;;;;;;;164.13;40.67;;;5.10;99.90;;;;;;4952980;28;20050;-68
2023/12/12 09:13:14;;;;;;;174.43;38.95;;;5.30;99.90;;;;;;4953481;28;20161;-68
2023/12/12 09:15:40;;;;;;;162.02;36.40;;;5.50;99.90;;;;;;4953400;28;20108;-68
2023/12/12 09:18:06;;;;;;;217.85;42.25;;;5.40;99.90;;;;;;4921900;28;20343;-69
2023/12/12 09:20:32;;;;;;;217.70;47.13;;;6.30;99.90;;;;;;4937420;28;20545;-68
2023/12/12 09:22:57;;;;;;;245.80;45.95;;;6.20;99.90;;;;;;4921496;28;20106;-68
2023/12/12 09:25:23;;;;;;;212.23;46.72;;;6.30;99.90;;;;;;4921194;28;20046;-68
2023/12/12 09:27:49;;;;;;;165.85;43.03;;;6.50;99.90;;;;;;4937031;28;20505;-68
2023/12/12 09:30:15;;;;;;;139.52;45.20;;;6.40;99.90;;;;;;4953093;28;20351;-68
2023/12/12 09:32:41;;;;;;;101.18;39.28;;;5.70;99.90;;;;;;4937251;28;20084;-68
2023/12/12 09:35:07;;;;;;;111.45;40.63;;;5.70;99.90;;;;;;4938096;28;20397;-69
2023/12/12 09:37:33;;;;;;;114.93;45.47;;;6.00;99.90;;;;;;4952867;28;20548;-68
2023/12/12 09:40:00;;;;;;;100.72;40.72;;;6.00;99.90;;;;;;4937283;28;20046;-68
2023/12/12 09:42:28;;;;;;;151.23;44.92;;;7.40;99.90;;;;;;4953405;28;20054;-68
2023/12/12 09:44:59;;;;;;;133.73;46.35;;;6.30;99.90;;;;;;4953275;28;20059;-68
2023/12/12 09:47:32;;;;;;;105.93;43.33;;;7.40;99.90;;;;;;4953658;28;20054;-68
2023/12/12 09:49:58;;;;;;;;;;;6.40;99.90;;;;;;4953542;28;20051;-68
2023/12/12 09:52:34;;;;;;;94.13;41.80;;;7.20;99.90;;;;;;4985384;28;19921;-69
2023/12/12 09:55:00;;;;;;;96.55;41.33;;;6.90;99.90;;;;;;4953166;28;20465;-68
2023/12/12 09:57:28;;;;;;;86.32;38.83;;;6.30;99.90;;;;;;4953027;28;20154;-68
2023/12/12 09:59:53;;;;;;;131.43;42.45;;;7.40;99.90;;;;;;4952995;28;20042;-68
2023/12/12 10:02:31;;;;;;;242.18;46.88;;;7.30;99.90;;;;;;4952682;28;20511;-68
2023/12/12 10:04:57;;;;;;;122.10;41.03;;;6.70;99.90;;;;;;4937376;28;20604;-68
2023/12/12 10:07:24;;;;;;;113.40;42.63;;;6.20;99.90;;;;;;4937102;28;20058;-68
2023/12/12 10:09:51;;;;;;;165.88;49.60;;;5.90;99.90;;;;;;4921200;28;20145;-68
2023/12/12 10:12:17;;;;;;;230.05;47.75;;;6.70;99.90;;;;;;4936614;28;20066;-68
2023/12/12 10:14:47;;;;;;;282.17;54.45;;;7.30;99.90;;;;;;4952751;28;20595;-68
2023/12/12 10:17:14;;;;;;;494.60;68.18;;;7.20;99.90;;;;;;4984780;28;20345;-68
2023/12/12 10:19:40;;;;;;;388.35;69.20;;;6.20;99.90;;;;;;4967438;28;20418;-68
2023/12/12 10:22:08;;;;;;;529.15;69.85;;;6.20;99.90;;;;;;4954457;28;20113;-68
2023/12/12 10:24:34;;;;;;;587.15;70.18;;;6.30;99.90;;;;;;4955417;28;20588;-69
2023/12/12 10:27:01;;;;;;;487.23;71.63;;;7.50;99.90;;;;;;4937041;28;20130;-69
2023/12/12 10:29:27;;;;;;;721.63;74.82;;;7.30;99.90;;;;;;4952373;28;20133;-69
2023/12/12 10:31:53;;;;;;;555.78;65.40;;;6.80;99.90;;;;;;4952783;28;20126;-68
2023/12/12 10:34:23;;;;;;;889.05;80.80;;;7.20;99.90;;;;;;4936299;28;20476;-69
2023/12/12 10:36:49;;;;;;;442.63;49.25;;;6.40;99.90;;;;;;4951802;28;20051;-68
2023/12/12 10:39:15;;;;;;;689.30;56.15;;;6.40;99.90;;;;;;4936203;28;20046;-68
2023/12/12 10:41:55;;;;;;;552.72;52.78;;;6.30;99.90;;;;;;4936340;28;20460;-68
2023/12/12 10:44:25;;;;;;;915.88;74.32;;;7.20;99.90;;;;;;4952097;28;20049;-68
2023/12/12 10:46:54;;;;;;;706.22;67.97;;;6.30;99.90;;;;;;4951904;28;20050;-69
2023/12/12 10:49:34;;;;;;;638.78;65.93;;;6.90;99.90;;;;;;4952044;28;20556;-69
2023/12/12 10:52:05;;;;;;;760.58;69.60;;;7.40;99.90;;;;;;4952216;28;20066;-69
2023/12/12 10:54:33;;;;;;;777.70;73.55;;;6.60;99.90;;;;;;4952424;28;20100;-68
2023/12/12 10:57:00;;;;;;;574.47;60.60;;;6.10;99.90;;;;;;4919863;28;20489;-68
2023/12/12 10:59:28;;;;;;;550.88;59.17;;;7.20;99.90;;;;;;4951903;28;20043;-69
2023/12/12 11:01:54;;;;;;;735.90;72.72;;;7.20;99.90;;;;;;4936149;28;20429;-68
2023/12/12 11:04:23;;;;;;;867.90;85.68;;;6.60;99.90;;;;;;4935440;28;20050;-68
2023/12/12 11:06:50;;;;;;;548.17;68.90;;;6.60;99.90;;;;;;4952139;28;20501;-68
2023/12/12 11:09:16;;;;;;;418.65;54.53;;;6.60;99.90;;;;;;4951669;28;20221;-69
2023/12/12 11:11:45;;;;;;;500.92;63.13;;;7.20;99.90;;;;;;4954051;28;20039;-68
2023/12/12 11:14:12;;;;;;;408.35;53.63;;;6.30;99.90;;;;;;4955777;28;20110;-68
2023/12/12 11:16:38;;;;;;;445.92;56.53;;;7.20;99.90;;;;;;4955795;28;20436;-68
2023/12/12 11:19:04;;;;;;;413.65;53.50;;;6.00;99.90;;;;;;4939536;28;20051;-68
2023/12/12 11:21:45;;;;;;;474.75;55.13;;;6.30;99.90;;;;;;4955892;28;20050;-68
2023/12/12 11:24:12;;;;;;;512.47;58.67;;;6.40;99.90;;;;;;4955944;28;20653;-68
2023/12/12 11:26:44;;;;;;;451.33;56.75;;;6.70;99.90;;;;;;4939698;28;20065;-68
2023/12/12 11:29:23;;;;;;;495.48;59.60;;;6.00;99.90;;;;;;4955121;28;20070;-68
2023/12/12 11:32:02;;;;;;;498.77;60.22;;;5.80;99.90;;;;;;4987930;28;20043;-68
2023/12/12 11:34:40;;;;;;;269.33;44.92;;;6.60;99.90;;;;;;4955691;28;20055;-68
2023/12/12 11:37:08;;;;;;;237.45;41.70;;;6.20;99.90;;;;;;4955322;28;20314;-68
2023/12/12 11:39:49;;;;;;;335.88;48.67;;;6.40;99.90;;;;;;4954776;28;20387;-68
2023/12/12 11:42:24;;;;;;;429.75;54.63;;;6.70;99.90;;;;;;4955703;28;20043;-68
2023/12/12 11:44:55;;;;;;;285.05;46.17;;;6.40;99.90;;;;;;4923975;28;20047;-68
2023/12/12 11:47:29;;;;;;;498.67;59.85;;;6.50;99.90;;;;;;4939097;28;20082;-68
2023/12/12 11:50:15;;;;;;;469.00;60.45;;;6.20;99.90;;;;;;4939465;28;20047;-68
2023/12/12 11:52:41;;;;;;;578.78;64.32;;;6.70;99.90;;;;;;4955026;28;20058;-67
2023/12/12 11:55:09;;;;;;;557.75;62.58;;;6.40;99.90;;;;;;4954718;28;20043;-67
2023/12/12 11:57:35;;;;;;;595.83;66.80;;;6.20;99.90;;;;;;4954673;28;20047;-68
2023/12/12 12:00:05;;;;;;;605.38;73.10;;;5.90;99.90;;;;;;4954723;28;20047;-68
2023/12/12 12:02:31;;;;;;;507.75;63.85;;;5.60;99.90;;;;;;4955151;28;20078;-67
2023/12/12 12:04:57;;;;;;;478.70;62.92;;;7.00;99.90;;;;;;4939058;28;20612;-68
2023/12/12 12:07:24;;;;;;;464.58;57.78;;;6.30;99.90;;;;;;4937976;28;20141;-68
2023/12/12 12:09:52;;;;;;;395.52;52.42;;;6.00;99.90;;;;;;4922035;28;20764;-68
2023/12/12 12:12:19;;;;;;;319.42;47.25;;;6.70;99.90;;;;;;4938321;28;20157;-68
2023/12/12 12:14:45;;;;;;;433.58;57.42;;;6.50;99.90;;;;;;4954585;28;20279;-68
2023/12/12 12:17:11;;;;;;;320.35;46.78;;;6.80;99.90;;;;;;4955076;28;20115;-67
2023/12/12 12:19:38;;;;;;;206.52;36.25;;;6.20;99.90;;;;;;4953843;28;20161;-68
2023/12/12 12:22:08;;;;;;;223.52;38.55;;;5.60;99.90;;;;;;4953551;28;20889;-68
2023/12/12 12:24:42;;;;;;;466.58;55.95;;;6.10;99.90;;;;;;4937813;28;20109;-68
2023/12/12 12:27:07;;;;;;;554.88;63.08;;;6.00;99.90;;;;;;4938634;28;20315;-68
2023/12/12 12:29:33;;;;;;;414.65;50.33;;;5.80;99.90;;;;;;4906858;28;20039;-68
2023/12/12 12:32:17;;;;;;;469.52;60.63;;;5.70;99.90;;;;;;4938210;28;20046;-68
2023/12/12 12:34:44;;;;;;;323.48;46.75;;;6.70;99.90;;;;;;4938142;28;20049;-68
2023/12/12 12:37:42;;;;;;;357.45;53.03;;;6.50;99.90;;;;;;4922635;28;20082;-68
2023/12/12 12:40:10;;;;;;;465.10;57.17;;;6.20;99.90;;;;;;4931834;28;20592;-68
2023/12/12 12:42:37;;;;;;;613.30;70.88;;;6.00;99.90;;;;;;4953682;28;20540;-68